Time;durP1;ratioP1;P1;durP2;ratioP2;P2;SDS_P1;SDS_P2;PMS_P1;PMS_P2;Temp;Humidity;BMP_temperature;BMP_pressure;BME280_temperature;BME280_humidity;BME280_pressure;Samples;Min_cycle;Max_cycle;Signal;HPM_P1;HPM_P2
2023/05/03 00:01:10;;;;;;;6.43;5.38;;;;;;;;;;5053153;28;20029;-95
2023/05/03 00:03:36;;;;;;;6.80;5.07;;;;;;;;;;5054665;28;20046;-96
2023/05/03 00:06:10;;;;;;;7.60;5.18;;;;;;;;;;5057286;28;20041;-96
2023/05/03 00:08:36;;;;;;;5.70;4.95;;;;;;;;;;5055748;28;20382;-96
2023/05/03 00:11:02;;;;;;;5.65;4.78;;;;;;;;;;5055857;28;20167;-96
2023/05/03 00:13:29;;;;;;;6.55;5.10;;;;;;;;;;5054683;28;20035;-96
2023/05/03 00:15:55;;;;;;;7.40;5.47;;;;;;;;;;5052855;28;20064;-96
2023/05/03 00:18:22;;;;;;;6.45;5.05;;;;;;;;;;5055191;28;20528;-96
2023/05/03 00:20:50;;;;;;;6.35;5.00;;;;;;;;;;5035940;28;20074;-96
2023/05/03 00:23:16;;;;;;;5.68;5.07;;;;;;;;;;5034448;28;20519;-96
2023/05/03 00:25:43;;;;;;;7.78;5.30;;;;;;;;;;5036362;28;20032;-96
2023/05/03 00:28:09;;;;;;;5.95;5.10;;;;;;;;;;5040672;28;20086;-96
2023/05/03 00:30:35;;;;;;;6.60;4.90;;;;;;;;;;5053348;28;20068;-96
2023/05/03 00:33:01;;;;;;;7.22;4.45;;;;;;;;;;5050669;28;20025;-96
2023/05/03 00:35:28;;;;;;;6.55;5.13;;;;;;;;;;5032808;28;20046;-96
2023/05/03 00:37:54;;;;;;;5.90;4.40;;;;;;;;;;5032500;28;20021;-96
2023/05/03 00:40:20;;;;;;;5.18;4.30;;;;;;;;;;5033014;28;20162;-96
2023/05/03 00:42:46;;;;;;;5.88;4.70;;;;;;;;;;5032782;28;20025;-96
2023/05/03 00:45:12;;;;;;;5.35;4.72;;;;;;;;;;5032527;28;20292;-96
2023/05/03 00:47:38;;;;;;;4.32;3.80;;;;;;;;;;5032778;28;20051;-96
2023/05/03 00:50:06;;;;;;;6.40;4.60;;;;;;;;;;5033578;28;20018;-96
2023/05/03 00:52:32;;;;;;;5.93;4.93;;;;;;;;;;5032688;28;20098;-96
2023/05/03 00:54:59;;;;;;;6.32;5.20;;;;;;;;;;5032372;28;20029;-96
2023/05/03 00:57:28;;;;;;;4.90;4.28;;;;;;;;;;5034497;28;20094;-96
2023/05/03 00:59:55;;;;;;;6.68;4.80;;;;;;;;;;5038445;28;20069;-96
2023/05/03 01:02:21;;;;;;;5.47;4.90;;;;;;;;;;5032305;28;20473;-96
2023/05/03 01:04:47;;;;;;;5.85;4.78;;;;;;;;;;5033720;28;20037;-96
2023/05/03 01:07:22;;;;;;;5.90;4.45;;;;;;;;;;5054774;28;20041;-96
2023/05/03 01:09:53;;;;;;;9.68;6.20;;;;;;;;;;5038936;28;20116;-96
2023/05/03 01:12:19;;;;;;;8.10;5.78;;;;;;;;;;5034090;28;20053;-96
2023/05/03 01:14:51;;;;;;;7.13;5.00;;;;;;;;;;5034213;28;20445;-96
2023/05/03 01:17:20;;;;;;;7.95;6.85;;;;;;;;;;5036059;28;20059;-96
2023/05/03 01:19:55;;;;;;;8.63;6.28;;;;;;;;;;5044723;28;20029;-96
2023/05/03 01:22:33;;;;;;;6.60;5.78;;;;;;;;;;5046502;28;20025;-96
2023/05/03 01:25:12;;;;;;;7.50;5.80;;;;;;;;;;5033472;28;20036;-95
2023/05/03 01:27:39;;;;;;;7.43;6.05;;;;;;;;;;5033546;28;20405;-96
2023/05/03 01:30:10;;;;;;;8.27;6.93;;;;;;;;;;5032440;28;20025;-96
2023/05/03 01:32:43;;;;;;;11.73;7.25;;;;;;;;;;5032260;28;20025;-96
2023/05/03 01:35:15;;;;;;;8.30;6.70;;;;;;;;;;5035489;28;20481;-96
2023/05/03 01:37:44;;;;;;;8.32;7.18;;;;;;;;;;5039628;28;20086;-96
2023/05/03 01:40:15;;;;;;;8.02;5.97;;;;;;;;;;5054420;28;20032;-95
2023/05/03 01:42:42;;;;;;;8.45;7.20;;;;;;;;;;5055011;28;20061;-96
2023/05/03 01:45:08;;;;;;;10.68;6.75;;;;;;;;;;5054793;28;20020;-96
2023/05/03 01:47:35;;;;;;;9.60;7.18;;;;;;;;;;5054961;28;20115;-96
2023/05/03 01:50:01;;;;;;;7.90;6.18;;;;;;;;;;5055136;28;20025;-95
2023/05/03 01:52:27;;;;;;;8.68;7.47;;;;;;;;;;5054301;28;20032;-96
2023/05/03 01:54:53;;;;;;;8.45;7.00;;;;;;;;;;5055484;28;21896;-96
2023/05/03 01:57:19;;;;;;;8.23;6.95;;;;;;;;;;5054264;28;20060;-96
2023/05/03 01:59:45;;;;;;;8.45;6.88;;;;;;;;;;5048170;28;20078;-96
2023/05/03 02:02:12;;;;;;;8.85;7.20;;;;;;;;;;5055098;28;20366;-96
2023/05/03 02:04:38;;;;;;;10.02;7.63;;;;;;;;;;5054735;28;20020;-96
2023/05/03 02:07:04;;;;;;;9.18;7.28;;;;;;;;;;5062290;28;20040;-94
2023/05/03 02:09:30;;;;;;;11.73;8.90;;;;;;;;;;5061994;28;20036;-96
2023/05/03 02:11:56;;;;;;;10.55;8.82;;;;;;;;;;5058409;28;20097;-96
2023/05/03 02:14:22;;;;;;;13.02;8.93;;;;;;;;;;5056577;28;20096;-96
2023/05/03 02:16:48;;;;;;;11.38;9.00;;;;;;;;;;5056203;28;20040;-96
2023/05/03 02:19:15;;;;;;;13.18;8.82;;;;;;;;;;5057232;28;20020;-96
2023/05/03 02:21:41;;;;;;;10.57;8.73;;;;;;;;;;5049618;28;20039;-96
2023/05/03 02:24:07;;;;;;;9.45;7.53;;;;;;;;;;5043852;28;20065;-96
2023/05/03 02:26:35;;;;;;;9.65;8.18;;;;;;;;;;5042662;28;20041;-96
2023/05/03 02:29:01;;;;;;;10.88;7.20;;;;;;;;;;5038540;28;20027;-96
2023/05/03 02:31:28;;;;;;;9.07;7.82;;;;;;;;;;5037243;28;20021;-96
2023/05/03 02:33:54;;;;;;;12.23;8.85;;;;;;;;;;5038876;28;20078;-96
2023/05/03 02:36:20;;;;;;;9.90;7.35;;;;;;;;;;5036660;28;20136;-96
2023/05/03 02:38:47;;;;;;;8.70;7.40;;;;;;;;;;5044814;28;20029;-94
2023/05/03 02:41:13;;;;;;;8.25;6.65;;;;;;;;;;5056893;28;20029;-96
2023/05/03 02:43:45;;;;;;;8.90;7.20;;;;;;;;;;5044270;28;20029;-96
2023/05/03 02:46:18;;;;;;;10.07;7.75;;;;;;;;;;5040053;28;20037;-96
2023/05/03 02:51:37;;;;;;;8.57;6.70;;;;;;;;;;5022774;28;20035;-96
2023/05/03 02:54:03;;;;;;;10.10;7.60;;;;;;;;;;5005362;28;20277;-96
2023/05/03 02:56:39;;;;;;;;;;;;;;;;;;;;;
2023/05/03 02:59:06;;;;;;;9.23;7.60;;;;;;;;;;5001406;28;20117;-96
2023/05/03 03:01:35;;;;;;;10.50;8.10;;;;;;;;;;5004828;28;20070;-96
2023/05/03 03:04:01;;;;;;;10.63;7.93;;;;;;;;;;5003023;28;20028;-96
2023/05/03 03:06:27;;;;;;;11.00;8.48;;;;;;;;;;5003181;28;20038;-96
2023/05/03 03:08:53;;;;;;;10.07;7.68;;;;;;;;;;5002763;28;20029;-96
2023/05/03 03:11:19;;;;;;;13.93;9.02;;;;;;;;;;5006890;28;20042;-96
2023/05/03 03:13:46;;;;;;;14.45;10.30;;;;;;;;;;5005477;28;20035;-96
2023/05/03 03:16:12;;;;;;;12.50;10.35;;;;;;;;;;5004097;28;20092;-96
2023/05/03 03:18:39;;;;;;;10.77;9.13;;;;;;;;;;5035980;28;20025;-95
2023/05/03 03:21:09;;;;;;;11.20;9.02;;;;;;;;;;5030857;28;20033;-96
2023/05/03 03:23:35;;;;;;;10.70;9.13;;;;;;;;;;5047488;28;20056;-96
2023/05/03 03:26:01;;;;;;;12.10;9.90;;;;;;;;;;5054396;28;20030;-96
2023/05/03 03:28:28;;;;;;;13.07;9.85;;;;;;;;;;5039956;28;20033;-96
2023/05/03 03:30:54;;;;;;;12.30;10.73;;;;;;;;;;5038208;28;20029;-96
2023/05/03 03:33:22;;;;;;;10.88;9.25;;;;;;;;;;5052072;28;20120;-96
2023/05/03 03:35:48;;;;;;;11.60;8.93;;;;;;;;;;5058169;28;20112;-96
2023/05/03 03:38:14;;;;;;;11.95;9.25;;;;;;;;;;5037467;28;20116;-96
2023/05/03 03:40:40;;;;;;;11.82;9.55;;;;;;;;;;5038206;28;20032;-96
2023/05/03 03:43:07;;;;;;;11.00;9.07;;;;;;;;;;5037739;28;20401;-96
2023/05/03 03:45:33;;;;;;;11.15;8.73;;;;;;;;;;5052447;28;20033;-96
2023/05/03 03:47:59;;;;;;;12.27;8.75;;;;;;;;;;5057995;28;20369;-96
2023/05/03 03:50:26;;;;;;;10.48;8.85;;;;;;;;;;5055362;28;20043;-93
2023/05/03 03:53:25;;;;;;;10.05;8.18;;;;;;;;;;5058132;28;20021;-96
2023/05/03 03:55:51;;;;;;;10.48;8.13;;;;;;;;;;5034190;28;20059;-96
2023/05/03 03:58:17;;;;;;;8.52;6.90;;;;;;;;;;5050368;28;20026;-94
2023/05/03 04:00:43;;;;;;;8.95;7.75;;;;;;;;;;5063345;28;20041;-95
2023/05/03 04:03:09;;;;;;;11.75;7.82;;;;;;;;;;5067178;28;20056;-95
2023/05/03 04:09:21;;;;;;;9.32;7.60;;;;;;;;;;5089211;23;20048;-96
2023/05/03 04:12:05;;;;;;;11.18;6.70;;;;;;;;;;5047529;28;20419;-96
2023/05/03 04:14:36;;;;;;;10.30;6.38;;;;;;;;;;5057427;28;20029;-95
2023/05/03 04:17:03;;;;;;;9.95;5.60;;;;;;;;;;5039383;28;20485;-95
2023/05/03 04:22:47;;;;;;;7.47;5.70;;;;;;;;;;5230974;22;20148;-96
2023/05/03 04:25:13;;;;;;;7.05;5.75;;;;;;;;;;5354889;22;20049;-95
2023/05/03 04:27:40;;;;;;;7.28;5.93;;;;;;;;;;5274596;22;20050;-96
2023/05/03 04:32:39;;;;;;;8.77;4.60;;;;;;;;;;5014888;28;19928;-94
2023/05/03 04:35:08;;;;;;;6.50;4.97;;;;;;;;;;4999232;28;20026;-95
2023/05/03 04:37:35;;;;;;;6.18;4.68;;;;;;;;;;4998981;28;20401;-94
2023/05/03 04:40:01;;;;;;;5.28;4.35;;;;;;;;;;4999587;28;20462;-94
2023/05/03 04:42:27;;;;;;;7.60;4.47;;;;;;;;;;4999132;28;20445;-95
2023/05/03 04:44:53;;;;;;;4.65;3.97;;;;;;;;;;4998789;28;20467;-94
2023/05/03 04:47:24;;;;;;;7.13;3.88;;;;;;;;;;5010603;28;20033;-95
2023/05/03 04:49:50;;;;;;;5.20;4.13;;;;;;;;;;5016781;28;20030;-95
2023/05/03 04:52:16;;;;;;;8.10;4.10;;;;;;;;;;4999826;28;20022;-96
2023/05/03 04:54:44;;;;;;;5.43;3.95;;;;;;;;;;5000020;28;20549;-96
2023/05/03 04:57:10;;;;;;;5.55;4.03;;;;;;;;;;5000902;28;20026;-96
2023/05/03 04:59:36;;;;;;;5.38;3.55;;;;;;;;;;4999992;28;20038;-96
2023/05/03 05:02:03;;;;;;;5.28;4.15;;;;;;;;;;4999503;28;20054;-96
2023/05/03 05:04:29;;;;;;;6.65;4.22;;;;;;;;;;4999351;28;20621;-96
2023/05/03 05:06:55;;;;;;;6.13;4.00;;;;;;;;;;4998276;28;20025;-96
2023/05/03 05:09:22;;;;;;;6.32;4.00;;;;;;;;;;4997965;28;20030;-96
2023/05/03 05:11:49;;;;;;;6.25;4.35;;;;;;;;;;4999814;28;20022;-96
2023/05/03 05:14:15;;;;;;;5.90;4.30;;;;;;;;;;4998432;28;20113;-96
2023/05/03 05:16:41;;;;;;;5.53;4.03;;;;;;;;;;4999443;28;20065;-96
2023/05/03 05:19:07;;;;;;;6.35;4.18;;;;;;;;;;4999663;28;20589;-96
2023/05/03 05:21:34;;;;;;;6.25;4.40;;;;;;;;;;4998554;28;20030;-96
2023/05/03 05:26:36;;;;;;;6.07;4.50;;;;;;;;;;5106174;22;20077;-92
2023/05/03 05:29:02;;;;;;;7.38;4.70;;;;;;;;;;5054109;28;20024;-96
2023/05/03 05:31:28;;;;;;;6.10;4.45;;;;;;;;;;5057045;28;20559;-94
2023/05/03 05:33:54;;;;;;;7.05;4.50;;;;;;;;;;5065080;28;20025;-94
2023/05/03 05:36:20;;;;;;;5.50;3.97;;;;;;;;;;5057549;28;20059;-93
2023/05/03 05:38:47;;;;;;;4.88;4.03;;;;;;;;;;5055420;28;20021;-95
2023/05/03 05:41:13;;;;;;;4.55;3.95;;;;;;;;;;5054213;28;20060;-95
2023/05/03 05:43:39;;;;;;;5.90;3.97;;;;;;;;;;5054233;28;20021;-96
2023/05/03 05:46:07;;;;;;;5.32;4.10;;;;;;;;;;5054245;28;20040;-96
2023/05/03 05:48:34;;;;;;;5.15;4.18;;;;;;;;;;5054071;28;20036;-96
2023/05/03 05:51:00;;;;;;;7.68;4.55;;;;;;;;;;5053813;28;20504;-96
2023/05/03 05:53:36;;;;;;;5.97;4.43;;;;;;;;;;5055396;28;20489;-95
2023/05/03 05:56:05;;;;;;;5.88;4.18;;;;;;;;;;5055830;28;20033;-96
2023/05/03 05:58:31;;;;;;;7.53;5.38;;;;;;;;;;5053925;28;20107;-95
2023/05/03 06:01:00;;;;;;;11.80;4.63;;;;;;;;;;5054299;28;20136;-95
2023/05/03 06:03:35;;;;;;;5.85;4.70;;;;;;;;;;5056130;28;20053;-96
2023/05/03 06:06:03;;;;;;;6.38;5.13;;;;;;;;;;5056431;28;20437;-96
2023/05/03 06:08:29;;;;;;;6.93;5.47;;;;;;;;;;5054882;28;20028;-96
2023/05/03 06:10:56;;;;;;;7.72;5.40;;;;;;;;;;5055878;28;20033;-96
2023/05/03 06:13:48;;;;;;;10.40;6.13;;;;;;;;;;5057945;28;20428;-96
2023/05/03 06:16:15;;;;;;;6.85;5.65;;;;;;;;;;5046062;28;20045;-96
2023/05/03 06:18:41;;;;;;;7.43;5.82;;;;;;;;;;5060896;28;20025;-96
2023/05/03 06:21:08;;;;;;;9.15;7.03;;;;;;;;;;5058430;28;20063;-96
2023/05/03 06:23:36;;;;;;;8.50;6.72;;;;;;;;;;5057929;28;20086;-95
2023/05/03 06:26:22;;;;;;;;;;;;;;;;;;;;;
2023/05/03 06:31:49;;;;;;;11.80;9.05;;;;;;;;;;5851214;23;20119;-95
2023/05/03 06:34:19;;;;;;;13.07;9.30;;;;;;;;;;4959003;28;20069;-96
2023/05/03 06:36:48;;;;;;;12.93;11.00;;;;;;;;;;4960896;29;20041;-96
2023/05/03 06:39:14;;;;;;;11.00;9.88;;;;;;;;;;4958760;28;20031;-96
2023/05/03 06:41:48;;;;;;;10.30;9.10;;;;;;;;;;4956998;29;20063;-96
2023/05/03 06:44:14;;;;;;;10.88;9.73;;;;;;;;;;4964411;29;20065;-96
2023/05/03 06:46:40;;;;;;;14.00;9.90;;;;;;;;;;4960907;29;20033;-94
2023/05/03 06:49:07;;;;;;;12.13;8.82;;;;;;;;;;4956065;29;20027;-94
2023/05/03 06:51:36;;;;;;;11.93;8.77;;;;;;;;;;4957491;28;20039;-96
2023/05/03 06:54:08;;;;;;;11.07;9.43;;;;;;;;;;4958184;28;20054;-96
2023/05/03 06:56:40;;;;;;;12.50;10.18;;;;;;;;;;4959005;28;20047;-96
2023/05/03 06:59:12;;;;;;;10.57;9.13;;;;;;;;;;4959305;29;20121;-96
2023/05/03 07:01:39;;;;;;;10.40;8.70;;;;;;;;;;4956951;29;20499;-96
2023/05/03 07:04:38;;;;;;;14.15;10.82;;;;;;;;;;4947427;28;20035;-96
2023/05/03 07:07:10;;;;;;;11.45;10.23;;;;;;;;;;4899394;29;20033;-95
2023/05/03 07:09:53;;;;;;;14.25;10.88;;;;;;;;;;4895360;29;20076;-95
2023/05/03 07:12:19;;;;;;;10.75;8.82;;;;;;;;;;4909250;29;20043;-96
2023/05/03 07:14:51;;;;;;;10.85;9.50;;;;;;;;;;4914611;29;20103;-94
2023/05/03 07:17:18;;;;;;;10.70;9.27;;;;;;;;;;4937744;29;20043;-96
2023/05/03 07:19:44;;;;;;;10.82;9.68;;;;;;;;;;4935786;28;20031;-95
2023/05/03 07:22:11;;;;;;;11.27;9.02;;;;;;;;;;4935925;28;20139;-96
2023/05/03 07:24:40;;;;;;;10.73;8.45;;;;;;;;;;4926605;28;20029;-94
2023/05/03 07:27:06;;;;;;;11.70;9.30;;;;;;;;;;4924036;28;20055;-94
2023/05/03 07:29:32;;;;;;;9.38;8.32;;;;;;;;;;4916976;28;20028;-94
2023/05/03 07:35:08;;;;;;;10.48;8.63;;;;;;;;;;4918096;29;20090;-96
2023/05/03 07:37:52;;;;;;;9.38;7.28;;;;;;;;;;4902869;28;20523;-95
2023/05/03 07:40:24;;;;;;;8.60;7.68;;;;;;;;;;4905114;28;20032;-96
2023/05/03 07:42:50;;;;;;;15.77;7.43;;;;;;;;;;4922751;29;20057;-96
2023/05/03 07:45:25;;;;;;;9.48;7.88;;;;;;;;;;4938701;29;20031;-96
2023/05/03 07:47:52;;;;;;;8.13;7.32;;;;;;;;;;4977119;28;20032;-96
2023/05/03 07:50:18;;;;;;;8.32;7.00;;;;;;;;;;4939420;28;20034;-95
2023/05/03 07:52:50;;;;;;;7.55;6.75;;;;;;;;;;4955470;28;20035;-95
2023/05/03 07:55:17;;;;;;;7.22;6.00;;;;;;;;;;4955241;28;20557;-95
2023/05/03 07:57:43;;;;;;;8.23;6.65;;;;;;;;;;4955572;29;20027;-96
2023/05/03 08:03:04;;;;;;;8.25;6.30;;;;;;;;;;4956495;29;20089;-96
2023/05/03 08:05:31;;;;;;;7.97;6.30;;;;;;;;;;4955185;29;20027;-96
2023/05/03 08:07:57;;;;;;;7.13;5.70;;;;;;;;;;4955632;29;20055;-96
2023/05/03 08:10:23;;;;;;;8.63;5.72;;;;;;;;;;4955657;29;20031;-96
2023/05/03 08:13:02;;;;;;;7.05;5.50;;;;;;;;;;4955370;28;20028;-93
2023/05/03 08:15:31;;;;;;;7.63;5.80;;;;;;;;;;4955396;28;20036;-96
2023/05/03 08:18:00;;;;;;;8.73;5.30;;;;;;;;;;4955898;28;20043;-96
2023/05/03 08:20:26;;;;;;;10.15;5.93;;;;;;;;;;4956151;28;20027;-96
2023/05/03 08:22:56;;;;;;;6.75;5.43;;;;;;;;;;4955683;28;20024;-96
2023/05/03 08:25:27;;;;;;;7.03;5.30;;;;;;;;;;4955920;28;20028;-96
2023/05/03 08:27:54;;;;;;;7.20;5.20;;;;;;;;;;4966680;28;20015;-93
2023/05/03 08:30:21;;;;;;;6.15;4.95;;;;;;;;;;4968019;28;20019;-96
2023/05/03 08:32:48;;;;;;;8.05;5.00;;;;;;;;;;4954808;28;20054;-96
2023/05/03 08:35:14;;;;;;;5.22;4.40;;;;;;;;;;4954493;29;20043;-96
2023/05/03 08:37:44;;;;;;;6.40;4.97;;;;;;;;;;4955512;29;20032;-96
2023/05/03 08:40:12;;;;;;;5.03;4.40;;;;;;;;;;4955913;29;20110;-96
2023/05/03 08:42:45;;;;;;;5.07;3.97;;;;;;;;;;4957723;29;20475;-96
2023/05/03 08:45:14;;;;;;;6.57;3.80;;;;;;;;;;4955934;29;20030;-94
2023/05/03 08:50:44;;;;;;;4.95;3.85;;;;;;;;;;4962803;29;20070;-96
2023/05/03 08:53:13;;;;;;;5.43;3.85;;;;;;;;;;4949358;28;20028;-96
2023/05/03 09:01:27;;;;;;;3.55;3.25;;;;;;;;;;4970470;28;20022;-96
2023/05/03 09:04:20;;;;;;;4.18;3.28;;;;;;;;;;4962450;28;20036;-94
2023/05/03 09:10:07;;;;;;;4.47;3.60;;;;;;;;;;5004633;28;20022;-96
2023/05/03 09:12:40;;;;;;;6.00;2.95;;;;;;;;;;4946299;29;20050;-96
2023/05/03 09:18:12;;;;;;;3.92;2.72;;;;;;;;;;4955978;28;20033;-96
2023/05/03 09:21:14;;;;;;;4.15;2.60;;;;;;;;;;5219097;23;20059;-96
2023/05/03 09:23:43;;;;;;;4.57;2.95;;;;;;;;;;4909664;29;20028;-96
2023/05/03 09:26:46;;;;;;;4.35;2.50;;;;;;;;;;4983785;23;20066;-95
2023/05/03 09:35:10;;;;;;;4.55;3.08;;;;;;;;;;4942284;29;20089;-93
2023/05/03 09:38:24;;;;;;;4.47;2.58;;;;;;;;;;4941620;29;20036;-95
2023/05/03 09:40:56;;;;;;;2.72;2.42;;;;;;;;;;4881043;29;20025;-93
2023/05/03 09:43:45;;;;;;;5.07;2.63;;;;;;;;;;4880970;29;20033;-94
2023/05/03 09:46:55;;;;;;;;;;;;;;;;;;;;;
2023/05/03 09:49:53;;;;;;;4.45;2.60;;;;;;;;;;4935179;28;20043;-96
2023/05/03 10:03:56;;;;;;;;;;;;;;;;;;;;;
2023/05/03 10:13:28;;;;;;;;;;;;;;;;;;;;;
2023/05/03 10:16:19;;;;;;;;;;;;;;;;;;;;;
2023/05/03 10:31:50;;;;;;;3.78;3.08;;;;;;;;;;5062632;28;20053;-94
2023/05/03 10:40:27;;;;;;;;;;;;;;;;;;;;;
2023/05/03 10:43:06;;;;;;;;;;;;;;;;;;;;;
2023/05/03 10:48:35;;;;;;;5.55;3.65;;;;;;;;;;5083222;23;20044;-96
2023/05/03 10:51:27;;;;;;;3.50;2.70;;;;;;;;;;5163170;22;20048;-96
2023/05/03 10:54:24;;;;;;;;;;;;;;;;;;;;;
2023/05/03 10:57:05;;;;;;;5.03;3.10;;;;;;;;;;5193064;22;20035;-96
2023/05/03 10:59:45;;;;;;;3.97;2.97;;;;;;;;;;5053274;28;20048;-94
2023/05/03 11:05:30;;;;;;;;;;;;;;;;;;;;;
2023/05/03 11:08:20;;;;;;;3.65;2.78;;;;;;;;;;5060015;28;20068;-96
2023/05/03 11:10:51;;;;;;;4.25;2.90;;;;;;;;;;5069872;28;20021;-96
2023/05/03 11:16:29;;;;;;;4.45;2.88;;;;;;;;;;5002424;28;20065;-96
2023/05/03 11:18:55;;;;;;;;;;;;;;;;;;5052779;28;20043;-96
2023/05/03 11:21:22;;;;;;;5.00;2.63;;;;;;;;;;5058847;28;19909;-95
2023/05/03 11:32:09;;;;;;;5.38;3.00;;;;;;;;;;5195573;22;20056;-96
2023/05/03 11:34:35;;;;;;;5.32;3.25;;;;;;;;;;5048209;28;20033;-96
2023/05/03 11:37:19;;;;;;;4.75;3.70;;;;;;;;;;5046356;28;20058;-96
2023/05/03 11:40:17;;;;;;;;;;;;;;;;;;;;;
2023/05/03 11:43:06;;;;;;;4.32;3.60;;;;;;;;;;5070469;28;20052;-96
2023/05/03 11:45:51;;;;;;;5.28;3.28;;;;;;;;;;5006710;28;20022;-94
2023/05/03 11:48:40;;;;;;;3.50;2.90;;;;;;;;;;4990861;28;20038;-95
2023/05/03 11:51:12;;;;;;;4.65;3.10;;;;;;;;;;5013085;28;20034;-95
2023/05/03 11:53:39;;;;;;;4.93;3.55;;;;;;;;;;4985342;28;20106;-94
2023/05/03 11:56:14;;;;;;;4.00;3.15;;;;;;;;;;4988619;28;20035;-96
2023/05/03 11:58:55;;;;;;;5.95;2.92;;;;;;;;;;4986505;28;20026;-96
2023/05/03 12:01:31;;;;;;;5.32;2.90;;;;;;;;;;4985724;28;20034;-96
2023/05/03 12:19:13;;;;;;;;;;;;;;;;;;;;;
2023/05/03 12:25:17;;;;;;;;;;;;;;;;;;;;;
2023/05/03 12:28:04;;;;;;;5.75;3.53;;;;;;;;;;4990985;28;20062;-96
2023/05/03 12:30:34;;;;;;;6.80;3.60;;;;;;;;;;5060385;28;20119;-95
2023/05/03 12:33:09;;;;;;;6.75;3.38;;;;;;;;;;5070607;28;20024;-96
2023/05/03 12:36:09;;;;;;;4.70;3.28;;;;;;;;;;5063969;28;20037;-96
2023/05/03 12:38:56;;;;;;;;;;;;;;;;;;;;;
2023/05/03 12:41:32;;;;;;;5.13;3.38;;;;;;;;;;5056802;28;20097;-96
2023/05/03 12:44:02;;;;;;;7.05;3.10;;;;;;;;;;5081991;28;20032;-95
2023/05/03 12:46:56;;;;;;;8.65;3.60;;;;;;;;;;5049546;28;20029;-94
2023/05/03 12:49:22;;;;;;;6.72;3.95;;;;;;;;;;5038225;28;20029;-93
2023/05/03 12:51:51;;;;;;;5.72;3.80;;;;;;;;;;5038053;28;20025;-94
2023/05/03 12:57:08;;;;;;;6.63;3.63;;;;;;;;;;5075994;28;20071;-94
2023/05/03 12:59:54;;;;;;;5.68;3.60;;;;;;;;;;5037961;28;20056;-96
2023/05/03 13:02:21;;;;;;;4.28;3.10;;;;;;;;;;5040261;28;20465;-94
2023/05/03 13:08:02;;;;;;;6.05;3.78;;;;;;;;;;4982173;28;20077;-95
2023/05/03 13:10:28;;;;;;;5.28;3.35;;;;;;;;;;4994780;28;20030;-94
2023/05/03 13:12:55;;;;;;;6.35;3.50;;;;;;;;;;5034574;28;20028;-95
2023/05/03 13:15:24;;;;;;;6.75;3.80;;;;;;;;;;5057247;28;20033;-94
2023/05/03 13:17:51;;;;;;;5.38;3.58;;;;;;;;;;5057298;28;20029;-94
2023/05/03 13:20:19;;;;;;;5.05;3.38;;;;;;;;;;5057177;28;20028;-94
2023/05/03 13:22:46;;;;;;;4.72;3.20;;;;;;;;;;5057212;28;20082;-96
2023/05/03 13:25:12;;;;;;;4.13;2.80;;;;;;;;;;5058685;28;20036;-94
2023/05/03 13:27:38;;;;;;;3.78;3.10;;;;;;;;;;5045174;28;20056;-95
2023/05/03 13:33:16;;;;;;;5.13;2.92;;;;;;;;;;6097222;22;20043;-96
2023/05/03 13:39:11;;;;;;;8.75;4.07;;;;;;;;;;4998299;28;20027;-96
2023/05/03 13:44:41;;;;;;;4.88;3.30;;;;;;;;;;4997164;28;20114;-95
2023/05/03 13:47:07;;;;;;;6.15;3.97;;;;;;;;;;4991306;28;20092;-96
2023/05/03 13:49:34;;;;;;;5.95;3.42;;;;;;;;;;5038559;28;20041;-92
2023/05/03 13:55:31;;;;;;;;;;;;;;;;;;;;;
2023/05/03 13:58:00;;;;;;;5.65;4.07;;;;;;;;;;5052013;28;20037;-95
2023/05/03 14:00:26;;;;;;;4.70;3.40;;;;;;;;;;5037998;28;20027;-93
2023/05/03 14:02:52;;;;;;;5.22;3.40;;;;;;;;;;5038353;28;20032;-92
2023/05/03 14:05:18;;;;;;;4.95;3.00;;;;;;;;;;5040102;28;20071;-92
2023/05/03 14:07:45;;;;;;;7.07;3.13;;;;;;;;;;5038881;28;20029;-92
2023/05/03 14:10:13;;;;;;;5.00;3.40;;;;;;;;;;5020769;28;20025;-95
2023/05/03 14:12:40;;;;;;;4.07;3.15;;;;;;;;;;5036470;28;20040;-95
2023/05/03 14:15:13;;;;;;;9.35;5.65;;;;;;;;;;5032550;28;20025;-92
2023/05/03 14:17:40;;;;;;;4.70;3.03;;;;;;;;;;5019433;28;20029;-92
2023/05/03 14:20:07;;;;;;;5.47;3.50;;;;;;;;;;5018129;28;20104;-93
2023/05/03 14:22:36;;;;;;;6.00;3.58;;;;;;;;;;5017504;28;20080;-92
2023/05/03 14:25:03;;;;;;;5.80;3.22;;;;;;;;;;5017561;28;20025;-91
2023/05/03 14:27:29;;;;;;;6.97;3.28;;;;;;;;;;5017457;28;20421;-95
2023/05/03 14:29:58;;;;;;;5.53;3.80;;;;;;;;;;5025032;28;20570;-94
2023/05/03 14:32:24;;;;;;;4.97;3.85;;;;;;;;;;5019529;28;20063;-93
2023/05/03 14:34:50;;;;;;;4.53;3.20;;;;;;;;;;5017052;28;20042;-96
2023/05/03 14:37:17;;;;;;;5.10;3.47;;;;;;;;;;5023422;28;20044;-96
2023/05/03 14:39:43;;;;;;;4.57;3.58;;;;;;;;;;5020892;28;20582;-96
2023/05/03 14:42:10;;;;;;;7.22;4.03;;;;;;;;;;5028908;28;20025;-96
2023/05/03 14:44:36;;;;;;;6.25;3.70;;;;;;;;;;5036012;28;20040;-96
2023/05/03 14:47:03;;;;;;;4.95;3.63;;;;;;;;;;5031710;28;20042;-96
2023/05/03 14:49:39;;;;;;;5.22;3.63;;;;;;;;;;5037463;28;20029;-96
2023/05/03 14:52:08;;;;;;;6.47;3.90;;;;;;;;;;5045509;28;20082;-96
2023/05/03 14:54:35;;;;;;;7.22;4.20;;;;;;;;;;5039334;28;20060;-96
2023/05/03 14:57:05;;;;;;;7.40;3.80;;;;;;;;;;5048874;28;20040;-95
2023/05/03 14:59:52;;;;;;;7.85;4.22;;;;;;;;;;5048895;28;20029;-96
2023/05/03 15:02:18;;;;;;;7.28;4.45;;;;;;;;;;5037788;28;20029;-95
2023/05/03 15:05:05;;;;;;;7.85;4.45;;;;;;;;;;5037197;28;20437;-94
2023/05/03 15:10:38;;;;;;;7.07;4.55;;;;;;;;;;5029735;28;20040;-96
2023/05/03 15:13:04;;;;;;;7.95;4.85;;;;;;;;;;5022559;28;20030;-96
2023/05/03 15:18:27;;;;;;;8.10;4.20;;;;;;;;;;5029688;28;20422;-95
2023/05/03 15:20:54;;;;;;;7.10;4.38;;;;;;;;;;5026362;28;20553;-96
2023/05/03 15:23:23;;;;;;;8.80;4.50;;;;;;;;;;5028355;28;20057;-96
2023/05/03 15:25:50;;;;;;;5.53;4.30;;;;;;;;;;5020591;28;20045;-96
2023/05/03 15:28:16;;;;;;;10.38;4.80;;;;;;;;;;5023167;28;20034;-95
2023/05/03 15:30:42;;;;;;;7.90;4.60;;;;;;;;;;5004222;28;20041;-94
2023/05/03 15:33:10;;;;;;;8.25;4.32;;;;;;;;;;5006070;28;20038;-92
2023/05/03 15:35:40;;;;;;;6.80;4.43;;;;;;;;;;4998938;28;20045;-94
2023/05/03 15:38:06;;;;;;;8.73;5.05;;;;;;;;;;4999662;28;20034;-93
2023/05/03 15:40:32;;;;;;;7.95;4.35;;;;;;;;;;5000262;28;20117;-94
2023/05/03 15:42:59;;;;;;;7.57;4.72;;;;;;;;;;5018540;28;20033;-95
2023/05/03 15:45:27;;;;;;;5.95;4.93;;;;;;;;;;5019258;28;20029;-94
2023/05/03 15:47:55;;;;;;;6.43;4.30;;;;;;;;;;5020732;28;20025;-94
2023/05/03 15:53:07;;;;;;;6.90;5.03;;;;;;;;;;4996704;28;20112;-95
2023/05/03 15:55:34;;;;;;;8.95;5.22;;;;;;;;;;5019035;28;20038;-96
2023/05/03 15:58:01;;;;;;;7.80;5.47;;;;;;;;;;5020020;28;20025;-93
2023/05/03 16:00:27;;;;;;;7.35;5.07;;;;;;;;;;5023375;28;20531;-95
2023/05/03 16:02:53;;;;;;;6.25;5.13;;;;;;;;;;5014836;28;20415;-96
2023/05/03 16:05:19;;;;;;;8.45;6.00;;;;;;;;;;5014208;28;20021;-96
2023/05/03 16:07:51;;;;;;;8.00;5.63;;;;;;;;;;5009466;28;20034;-96
2023/05/03 16:10:17;;;;;;;7.72;6.15;;;;;;;;;;5020449;28;20108;-92
2023/05/03 16:12:43;;;;;;;6.75;5.88;;;;;;;;;;5019506;28;20581;-94
2023/05/03 16:15:09;;;;;;;8.63;6.50;;;;;;;;;;5019638;28;20032;-96
2023/05/03 16:17:36;;;;;;;6.95;5.70;;;;;;;;;;5019406;28;20026;-95
2023/05/03 16:20:06;;;;;;;9.63;6.32;;;;;;;;;;5020001;28;20022;-96
2023/05/03 16:22:33;;;;;;;9.23;6.45;;;;;;;;;;5019141;28;20099;-96
2023/05/03 16:24:59;;;;;;;7.28;5.80;;;;;;;;;;5018910;28;20021;-96
2023/05/03 16:27:44;;;;;;;7.13;5.88;;;;;;;;;;5025940;28;20382;-95
2023/05/03 16:30:10;;;;;;;8.70;5.75;;;;;;;;;;5009047;28;20034;-94
2023/05/03 16:32:36;;;;;;;9.93;6.25;;;;;;;;;;5018052;28;20029;-95
2023/05/03 16:35:03;;;;;;;8.30;5.95;;;;;;;;;;5036616;28;20067;-95
2023/05/03 16:37:35;;;;;;;8.55;6.32;;;;;;;;;;5031851;28;20029;-95
2023/05/03 16:40:11;;;;;;;8.45;5.75;;;;;;;;;;5037366;23;20025;-93
2023/05/03 16:42:38;;;;;;;7.43;5.95;;;;;;;;;;5038644;28;20036;-96
2023/05/03 16:45:06;;;;;;;6.97;5.90;;;;;;;;;;5038456;28;20047;-95
2023/05/03 16:47:33;;;;;;;9.07;6.03;;;;;;;;;;5038441;28;20056;-95
2023/05/03 16:50:00;;;;;;;6.97;6.28;;;;;;;;;;5020621;28;20029;-94
2023/05/03 16:52:27;;;;;;;7.38;6.18;;;;;;;;;;5017894;28;20087;-95
2023/05/03 16:54:53;;;;;;;10.88;7.00;;;;;;;;;;5025930;28;20104;-94
2023/05/03 16:57:19;;;;;;;7.55;6.32;;;;;;;;;;5037646;28;20036;-93
2023/05/03 16:59:45;;;;;;;10.65;6.70;;;;;;;;;;5038498;28;20029;-96
2023/05/03 17:02:14;;;;;;;9.57;6.72;;;;;;;;;;5037656;28;20482;-95
2023/05/03 17:04:40;;;;;;;7.60;6.30;;;;;;;;;;5018026;28;20029;-95
2023/05/03 17:07:06;;;;;;;8.63;6.97;;;;;;;;;;5017432;28;20025;-96
2023/05/03 17:09:33;;;;;;;7.68;6.35;;;;;;;;;;5018207;28;20029;-95
2023/05/03 17:12:00;;;;;;;7.82;6.50;;;;;;;;;;5037672;28;20021;-94
2023/05/03 17:14:27;;;;;;;10.10;7.63;;;;;;;;;;5037542;28;20056;-96
2023/05/03 17:16:53;;;;;;;7.18;6.38;;;;;;;;;;5039356;28;20033;-96
2023/05/03 17:19:20;;;;;;;9.38;6.80;;;;;;;;;;5041813;28;20029;-96
2023/05/03 17:21:46;;;;;;;8.73;7.15;;;;;;;;;;5039752;28;20035;-96
2023/05/03 17:24:37;;;;;;;7.85;6.50;;;;;;;;;;5048957;28;20028;-96
2023/05/03 17:27:04;;;;;;;9.30;6.82;;;;;;;;;;5043102;28;20112;-94
2023/05/03 17:29:33;;;;;;;9.13;7.03;;;;;;;;;;5038086;28;20024;-94
2023/05/03 17:31:59;;;;;;;8.48;6.93;;;;;;;;;;5039054;28;20497;-93
2023/05/03 17:34:26;;;;;;;9.95;7.10;;;;;;;;;;5036262;28;20034;-93
2023/05/03 17:36:55;;;;;;;8.75;6.90;;;;;;;;;;5037680;28;20037;-94
2023/05/03 17:39:21;;;;;;;9.25;7.28;;;;;;;;;;5036752;28;20021;-95